Time;durP1;ratioP1;P1;durP2;ratioP2;P2;SDS_P1;SDS_P2;PMS_P1;PMS_P2;Temp;Humidity;BMP_temperature;BMP_pressure;BME280_temperature;BME280_humidity;BME280_pressure;Samples;Min_cycle;Max_cycle;Signal;HPM_P1;HPM_P2
2023/05/18 00:01:02;;;;;;;6.82;2.72;;;;;;;;;;5053464;28;20025;-67
2023/05/18 00:03:29;;;;;;;4.47;2.40;;;;;;;;;;5053507;28;20315;-67
2023/05/18 00:06:03;;;;;;;7.03;2.90;;;;;;;;;;5053290;28;20025;-67
2023/05/18 00:08:33;;;;;;;6.03;2.85;;;;;;;;;;5053516;28;20024;-67
2023/05/18 00:10:59;;;;;;;6.63;2.85;;;;;;;;;;5053383;28;20021;-67
2023/05/18 00:13:26;;;;;;;5.95;3.08;;;;;;;;;;5053268;28;20493;-67
2023/05/18 00:15:52;;;;;;;7.63;3.20;;;;;;;;;;5053579;28;20024;-67
2023/05/18 00:18:22;;;;;;;6.07;2.72;;;;;;;;;;5053256;28;20037;-67
2023/05/18 00:20:57;;;;;;;8.23;2.90;;;;;;;;;;5053239;28;20021;-67
2023/05/18 00:23:28;;;;;;;6.07;3.15;;;;;;;;;;5053178;28;20039;-67
2023/05/18 00:25:54;;;;;;;;;;;;;;;;;;5053519;28;20029;-67
2023/05/18 00:28:21;;;;;;;4.38;2.60;;;;;;;;;;5053131;28;20361;-67
2023/05/18 00:30:47;;;;;;;5.13;3.00;;;;;;;;;;5053062;28;20037;-67
2023/05/18 00:33:13;;;;;;;6.43;2.65;;;;;;;;;;5052334;28;20037;-67
2023/05/18 00:35:40;;;;;;;6.30;2.90;;;;;;;;;;5052698;28;20021;-67
2023/05/18 00:38:07;;;;;;;3.78;2.60;;;;;;;;;;5052695;28;20021;-67
2023/05/18 00:40:33;;;;;;;8.27;2.92;;;;;;;;;;5052926;28;20017;-67
2023/05/18 00:43:00;;;;;;;7.90;2.97;;;;;;;;;;5052926;28;20039;-67
2023/05/18 00:45:26;;;;;;;7.15;2.63;;;;;;;;;;5052734;28;20017;-67
2023/05/18 00:47:52;;;;;;;5.63;2.85;;;;;;;;;;5052817;28;20025;-67
2023/05/18 00:50:19;;;;;;;5.80;2.65;;;;;;;;;;5051397;28;20035;-67
2023/05/18 00:52:45;;;;;;;4.47;2.83;;;;;;;;;;5052654;28;20036;-67
2023/05/18 00:55:13;;;;;;;5.18;2.90;;;;;;;;;;5052575;28;20013;-67
2023/05/18 00:57:43;;;;;;;6.00;2.88;;;;;;;;;;5052353;28;20512;-67
2023/05/18 01:00:12;;;;;;;8.37;3.33;;;;;;;;;;5052497;28;20071;-67
2023/05/18 01:02:44;;;;;;;5.18;2.83;;;;;;;;;;5052406;28;20078;-67
2023/05/18 01:05:12;;;;;;;7.93;3.20;;;;;;;;;;5052231;28;20021;-67
2023/05/18 01:07:41;;;;;;;4.47;2.92;;;;;;;;;;5052471;28;20071;-67
2023/05/18 01:10:08;;;;;;;4.82;2.90;;;;;;;;;;5051019;28;20029;-67
2023/05/18 01:12:40;;;;;;;6.65;2.88;;;;;;;;;;5052350;28;20035;-67
2023/05/18 01:15:12;;;;;;;8.07;2.67;;;;;;;;;;5052333;28;20396;-67
2023/05/18 01:17:46;;;;;;;5.95;2.90;;;;;;;;;;5052514;28;20457;-67
2023/05/18 01:20:15;;;;;;;5.47;2.90;;;;;;;;;;5052116;28;20059;-67
2023/05/18 01:22:41;;;;;;;5.15;3.35;;;;;;;;;;5052061;28;20025;-67
2023/05/18 01:25:28;;;;;;;4.90;2.45;;;;;;;;;;5052514;28;20017;-67
2023/05/18 01:27:56;;;;;;;6.20;3.10;;;;;;;;;;5052140;28;20485;-67
2023/05/18 01:30:23;;;;;;;8.02;2.70;;;;;;;;;;5051806;28;20024;-67
2023/05/18 01:32:49;;;;;;;5.97;2.88;;;;;;;;;;5051577;28;20440;-67
2023/05/18 01:35:15;;;;;;;7.50;2.97;;;;;;;;;;5052217;28;20025;-67
2023/05/18 01:37:42;;;;;;;6.95;3.15;;;;;;;;;;5052061;28;20017;-67
2023/05/18 01:40:08;;;;;;;6.25;3.10;;;;;;;;;;5051866;28;20017;-67
2023/05/18 01:42:49;;;;;;;5.68;3.08;;;;;;;;;;5052158;28;20025;-67
2023/05/18 01:45:21;;;;;;;7.38;3.05;;;;;;;;;;5052311;28;20028;-67
2023/05/18 01:47:48;;;;;;;5.82;2.90;;;;;;;;;;5051618;28;20029;-67
2023/05/18 01:50:18;;;;;;;6.43;2.90;;;;;;;;;;5051672;28;20021;-67
2023/05/18 01:52:47;;;;;;;5.68;3.05;;;;;;;;;;5051848;28;20035;-67
2023/05/18 01:55:14;;;;;;;5.47;3.10;;;;;;;;;;5052131;28;20029;-67
2023/05/18 01:57:44;;;;;;;5.35;3.00;;;;;;;;;;5051706;28;20035;-67
2023/05/18 02:00:11;;;;;;;7.00;2.97;;;;;;;;;;5051751;28;20400;-67
2023/05/18 02:02:38;;;;;;;5.72;3.03;;;;;;;;;;5051829;28;20432;-67
2023/05/18 02:05:06;;;;;;;9.40;3.65;;;;;;;;;;5051768;28;20029;-68
2023/05/18 02:07:32;;;;;;;7.40;2.83;;;;;;;;;;5051850;28;20037;-67
2023/05/18 02:09:59;;;;;;;5.05;2.90;;;;;;;;;;5050491;28;20024;-67
2023/05/18 02:12:25;;;;;;;8.48;3.00;;;;;;;;;;5051959;28;20033;-67
2023/05/18 02:14:51;;;;;;;5.88;2.95;;;;;;;;;;5051628;28;20396;-67
2023/05/18 02:17:18;;;;;;;5.90;2.90;;;;;;;;;;5051335;28;20025;-67
2023/05/18 02:19:44;;;;;;;5.50;3.25;;;;;;;;;;5051704;28;20025;-67
2023/05/18 02:22:10;;;;;;;8.55;3.05;;;;;;;;;;5051825;28;20028;-67
2023/05/18 02:24:37;;;;;;;6.57;3.15;;;;;;;;;;5051655;28;20090;-67
2023/05/18 02:27:05;;;;;;;6.78;2.90;;;;;;;;;;5051348;28;20017;-67
2023/05/18 02:29:31;;;;;;;7.40;2.85;;;;;;;;;;5051373;28;20031;-67
2023/05/18 02:31:57;;;;;;;7.72;2.97;;;;;;;;;;5051070;28;20053;-67
2023/05/18 02:34:23;;;;;;;8.55;3.33;;;;;;;;;;5051334;28;20039;-67
2023/05/18 02:36:50;;;;;;;7.93;2.85;;;;;;;;;;5051310;28;20023;-67
2023/05/18 02:39:16;;;;;;;6.60;3.50;;;;;;;;;;5051628;28;20021;-67
2023/05/18 02:41:42;;;;;;;6.60;3.15;;;;;;;;;;5051262;28;20021;-67
2023/05/18 02:44:11;;;;;;;6.80;3.17;;;;;;;;;;5051637;28;20025;-67
2023/05/18 02:46:37;;;;;;;7.88;3.42;;;;;;;;;;5051414;28;20018;-67
2023/05/18 02:49:03;;;;;;;8.23;3.40;;;;;;;;;;5051363;28;20485;-67
2023/05/18 02:51:30;;;;;;;5.55;3.15;;;;;;;;;;5051570;28;20021;-67
2023/05/18 02:53:56;;;;;;;6.68;2.80;;;;;;;;;;5051193;28;20029;-67
2023/05/18 02:56:23;;;;;;;6.25;3.25;;;;;;;;;;5054008;28;20025;-67
2023/05/18 02:58:56;;;;;;;7.38;2.80;;;;;;;;;;5054707;28;20033;-67
2023/05/18 03:01:25;;;;;;;7.75;3.00;;;;;;;;;;5054800;28;20021;-67
2023/05/18 03:03:56;;;;;;;6.50;3.10;;;;;;;;;;5054720;28;20021;-67
2023/05/18 03:06:25;;;;;;;10.95;3.03;;;;;;;;;;5054693;28;20032;-67
2023/05/18 03:08:54;;;;;;;6.35;3.00;;;;;;;;;;5054658;28;20039;-67
2023/05/18 03:11:21;;;;;;;5.93;3.10;;;;;;;;;;5054602;28;20086;-67
2023/05/18 03:13:47;;;;;;;5.97;2.90;;;;;;;;;;5054328;28;20032;-67
2023/05/18 03:16:14;;;;;;;9.02;3.50;;;;;;;;;;5054409;28;20486;-67
2023/05/18 03:18:40;;;;;;;6.72;3.17;;;;;;;;;;5054365;28;20026;-67
2023/05/18 03:21:07;;;;;;;7.43;2.88;;;;;;;;;;5054846;28;20024;-67
2023/05/18 03:23:33;;;;;;;8.02;3.08;;;;;;;;;;5054271;28;20027;-67
2023/05/18 03:26:02;;;;;;;5.20;2.85;;;;;;;;;;5054547;28;20033;-67
2023/05/18 03:28:29;;;;;;;8.90;3.40;;;;;;;;;;5054202;28;20392;-67
2023/05/18 03:30:55;;;;;;;8.60;3.35;;;;;;;;;;5054064;28;20045;-67
2023/05/18 03:33:22;;;;;;;7.13;3.45;;;;;;;;;;5054090;28;20497;-67
2023/05/18 03:35:48;;;;;;;5.90;3.28;;;;;;;;;;5054149;28;20356;-67
2023/05/18 03:38:15;;;;;;;8.57;3.28;;;;;;;;;;5054495;28;20021;-67
2023/05/18 03:40:41;;;;;;;8.50;3.58;;;;;;;;;;5054196;28;20031;-66
2023/05/18 03:43:08;;;;;;;5.35;3.30;;;;;;;;;;5053842;28;20029;-67
2023/05/18 03:45:34;;;;;;;6.85;3.50;;;;;;;;;;5054108;28;20036;-67
2023/05/18 03:48:00;;;;;;;5.60;3.25;;;;;;;;;;5053916;28;20025;-67
2023/05/18 03:50:28;;;;;;;7.03;3.78;;;;;;;;;;5053829;28;20039;-67
2023/05/18 03:52:54;;;;;;;7.40;3.60;;;;;;;;;;5053865;28;20025;-67
2023/05/18 03:55:21;;;;;;;13.63;3.35;;;;;;;;;;5053747;28;20017;-67
2023/05/18 03:57:47;;;;;;;8.25;3.53;;;;;;;;;;5053455;28;20029;-67
2023/05/18 04:00:14;;;;;;;7.15;3.17;;;;;;;;;;5053980;28;20074;-67
2023/05/18 04:02:41;;;;;;;7.10;3.67;;;;;;;;;;5053907;28;20031;-67
2023/05/18 04:05:07;;;;;;;6.93;3.55;;;;;;;;;;5053521;28;20028;-67
2023/05/18 04:07:42;;;;;;;9.13;3.30;;;;;;;;;;5053347;28;20021;-67
2023/05/18 04:10:12;;;;;;;7.93;3.67;;;;;;;;;;5053410;28;20025;-67
2023/05/18 04:12:39;;;;;;;5.75;3.00;;;;;;;;;;5053420;28;20045;-67
2023/05/18 04:15:06;;;;;;;9.57;3.20;;;;;;;;;;5053697;28;20025;-67
2023/05/18 04:17:34;;;;;;;8.02;3.50;;;;;;;;;;5053292;28;20031;-67
2023/05/18 04:20:04;;;;;;;7.57;3.20;;;;;;;;;;5053242;28;20489;-67
2023/05/18 04:22:31;;;;;;;10.43;3.47;;;;;;;;;;5052386;28;20021;-67
2023/05/18 04:24:57;;;;;;;8.68;3.50;;;;;;;;;;5053409;28;20037;-67
2023/05/18 04:27:23;;;;;;;7.38;3.42;;;;;;;;;;5053114;28;20025;-67
2023/05/18 04:29:50;;;;;;;7.82;3.70;;;;;;;;;;5053029;28;20033;-67
2023/05/18 04:32:17;;;;;;;8.18;3.42;;;;;;;;;;5052876;28;20045;-67
2023/05/18 04:34:43;;;;;;;6.38;3.05;;;;;;;;;;5053189;28;20025;-67
2023/05/18 04:37:10;;;;;;;7.65;3.30;;;;;;;;;;5053398;28;20021;-67
2023/05/18 04:39:38;;;;;;;7.03;3.50;;;;;;;;;;5052988;28;20017;-67
2023/05/18 04:42:04;;;;;;;6.80;3.00;;;;;;;;;;5052642;28;20024;-67
2023/05/18 04:44:32;;;;;;;8.02;3.25;;;;;;;;;;5052819;28;20029;-67
2023/05/18 04:46:59;;;;;;;5.90;3.25;;;;;;;;;;5053006;28;20021;-67
2023/05/18 04:49:27;;;;;;;12.00;3.58;;;;;;;;;;5052574;28;20017;-67
2023/05/18 04:51:58;;;;;;;10.82;3.60;;;;;;;;;;5052727;28;20055;-67
2023/05/18 04:54:24;;;;;;;6.28;3.22;;;;;;;;;;5052606;28;20036;-67
2023/05/18 04:56:51;;;;;;;9.27;3.80;;;;;;;;;;5052314;28;20024;-67
2023/05/18 04:59:18;;;;;;;8.45;3.40;;;;;;;;;;5051417;28;20032;-67
2023/05/18 05:01:45;;;;;;;6.90;3.17;;;;;;;;;;5052510;28;20021;-67
2023/05/18 05:04:11;;;;;;;6.80;3.40;;;;;;;;;;5052359;28;20017;-67
2023/05/18 05:06:38;;;;;;;11.32;4.00;;;;;;;;;;5052408;28;20043;-67
2023/05/18 05:09:05;;;;;;;8.50;3.83;;;;;;;;;;5052502;28;20025;-67
2023/05/18 05:11:31;;;;;;;5.90;3.33;;;;;;;;;;5052385;28;20031;-67
2023/05/18 05:13:57;;;;;;;8.30;3.95;;;;;;;;;;5052331;28;20489;-67
2023/05/18 05:16:24;;;;;;;5.68;3.17;;;;;;;;;;5052208;28;20033;-67
2023/05/18 05:18:50;;;;;;;8.07;3.00;;;;;;;;;;5051855;28;20058;-67
2023/05/18 05:21:16;;;;;;;6.57;3.33;;;;;;;;;;5052420;28;20028;-67
2023/05/18 05:23:44;;;;;;;8.88;3.53;;;;;;;;;;5052105;28;20470;-67
2023/05/18 05:26:10;;;;;;;7.07;3.53;;;;;;;;;;5051863;28;20016;-67
2023/05/18 05:28:36;;;;;;;8.23;3.28;;;;;;;;;;5052313;28;20040;-67
2023/05/18 05:31:03;;;;;;;6.70;3.28;;;;;;;;;;5052206;28;20397;-67
2023/05/18 05:33:29;;;;;;;8.77;3.40;;;;;;;;;;5051905;28;20037;-67
2023/05/18 05:35:55;;;;;;;6.70;3.38;;;;;;;;;;5052088;28;20021;-67
2023/05/18 05:38:22;;;;;;;6.93;4.13;;;;;;;;;;5051885;28;20396;-67
2023/05/18 05:40:48;;;;;;;10.25;5.60;;;;;;;;;;5051874;28;20037;-67
2023/05/18 05:43:15;;;;;;;10.52;3.88;;;;;;;;;;5052030;28;20025;-67
2023/05/18 05:45:42;;;;;;;6.53;3.45;;;;;;;;;;5052214;28;20028;-67
2023/05/18 05:48:09;;;;;;;8.85;3.90;;;;;;;;;;5052166;28;20029;-67
2023/05/18 05:50:35;;;;;;;23.42;4.57;;;;;;;;;;5052088;28;20025;-67
2023/05/18 05:53:01;;;;;;;6.32;3.50;;;;;;;;;;5051674;28;20047;-67
2023/05/18 05:55:28;;;;;;;6.25;3.30;;;;;;;;;;5051473;28;20033;-67
2023/05/18 05:57:54;;;;;;;5.57;3.30;;;;;;;;;;5051932;28;20062;-67
2023/05/18 06:00:22;;;;;;;9.45;3.45;;;;;;;;;;5051695;28;20489;-67
2023/05/18 06:02:48;;;;;;;8.38;3.40;;;;;;;;;;5051852;28;20029;-67
2023/05/18 06:05:15;;;;;;;6.03;3.55;;;;;;;;;;5052003;28;20017;-67
2023/05/18 06:07:41;;;;;;;8.77;3.53;;;;;;;;;;5051718;28;20033;-67
2023/05/18 06:10:08;;;;;;;8.90;3.55;;;;;;;;;;5051461;28;20025;-67
2023/05/18 06:12:34;;;;;;;6.47;3.25;;;;;;;;;;5052026;28;20029;-67
2023/05/18 06:15:01;;;;;;;5.85;3.30;;;;;;;;;;5051503;28;20416;-67
2023/05/18 06:17:29;;;;;;;5.40;3.47;;;;;;;;;;5051806;28;20035;-67
2023/05/18 06:19:55;;;;;;;6.13;3.20;;;;;;;;;;5051686;28;20051;-67
2023/05/18 06:22:23;;;;;;;6.85;3.15;;;;;;;;;;5051354;28;20027;-67
2023/05/18 06:24:49;;;;;;;5.70;3.25;;;;;;;;;;5051789;28;20035;-67
2023/05/18 06:27:16;;;;;;;7.93;3.15;;;;;;;;;;5051514;28;20013;-67
2023/05/18 06:29:42;;;;;;;5.07;3.05;;;;;;;;;;5051930;28;20549;-67
2023/05/18 06:32:08;;;;;;;6.28;3.63;;;;;;;;;;5055139;28;20047;-67
2023/05/18 06:34:36;;;;;;;7.85;2.97;;;;;;;;;;5055218;28;20044;-67
2023/05/18 06:37:02;;;;;;;4.32;3.00;;;;;;;;;;5055041;28;20024;-67
2023/05/18 06:39:29;;;;;;;6.43;3.30;;;;;;;;;;5055052;28;20029;-67
2023/05/18 06:41:55;;;;;;;6.78;3.15;;;;;;;;;;5055216;28;20028;-67
2023/05/18 06:44:21;;;;;;;10.88;3.33;;;;;;;;;;5054927;28;20035;-67
2023/05/18 06:46:48;;;;;;;4.68;2.88;;;;;;;;;;5055277;28;20025;-67
2023/05/18 06:49:14;;;;;;;6.32;3.53;;;;;;;;;;5055393;28;20025;-67
2023/05/18 06:51:42;;;;;;;6.38;3.15;;;;;;;;;;5054603;28;20464;-67
2023/05/18 06:54:08;;;;;;;9.32;3.33;;;;;;;;;;5054772;28;20025;-66
2023/05/18 06:56:35;;;;;;;6.45;3.20;;;;;;;;;;5054760;28;20024;-67
2023/05/18 06:59:01;;;;;;;5.88;3.10;;;;;;;;;;5054716;28;20024;-66
2023/05/18 07:01:27;;;;;;;4.47;2.67;;;;;;;;;;5054763;28;20501;-67
2023/05/18 07:03:54;;;;;;;5.35;3.10;;;;;;;;;;5055009;28;20033;-67
2023/05/18 07:06:20;;;;;;;5.55;3.08;;;;;;;;;;5054360;28;20017;-67
2023/05/18 07:08:47;;;;;;;5.55;2.90;;;;;;;;;;5054915;28;20070;-67
2023/05/18 07:11:13;;;;;;;5.32;3.20;;;;;;;;;;5054613;28;20027;-67
2023/05/18 07:13:40;;;;;;;4.57;2.80;;;;;;;;;;5086843;28;20053;-67
2023/05/18 07:16:06;;;;;;;4.38;2.83;;;;;;;;;;5054416;28;20025;-67
2023/05/18 07:18:33;;;;;;;5.38;2.92;;;;;;;;;;5054822;28;20028;-67
2023/05/18 07:20:59;;;;;;;6.82;3.22;;;;;;;;;;5054370;28;20028;-67
2023/05/18 07:23:25;;;;;;;4.93;2.97;;;;;;;;;;5054296;28;20037;-67
2023/05/18 07:25:52;;;;;;;4.70;3.03;;;;;;;;;;5054291;28;20393;-67
2023/05/18 07:28:18;;;;;;;4.80;3.15;;;;;;;;;;5054178;28;20025;-67
2023/05/18 07:30:44;;;;;;;6.00;2.78;;;;;;;;;;5052887;28;20025;-67
2023/05/18 07:33:11;;;;;;;6.10;2.97;;;;;;;;;;5054253;28;20366;-67
2023/05/18 07:35:37;;;;;;;4.70;2.90;;;;;;;;;;5053828;28;20535;-67
2023/05/18 07:38:03;;;;;;;4.55;3.13;;;;;;;;;;5054416;28;20035;-67
2023/05/18 07:40:30;;;;;;;4.30;2.67;;;;;;;;;;5053914;28;20039;-67
2023/05/18 07:42:56;;;;;;;4.32;2.88;;;;;;;;;;5053990;28;20027;-67
2023/05/18 07:45:22;;;;;;;6.20;2.53;;;;;;;;;;5053920;28;20032;-68
2023/05/18 07:47:49;;;;;;;6.18;3.00;;;;;;;;;;5054105;28;20029;-67
2023/05/18 07:50:15;;;;;;;3.33;2.42;;;;;;;;;;5053679;28;20025;-67
2023/05/18 07:52:42;;;;;;;6.80;2.70;;;;;;;;;;5053720;28;20028;-68
2023/05/18 07:55:08;;;;;;;4.78;2.63;;;;;;;;;;5053715;28;20033;-68
2023/05/18 07:57:34;;;;;;;8.48;2.78;;;;;;;;;;5053949;28;20029;-67
2023/05/18 08:00:03;;;;;;;5.03;3.13;;;;;;;;;;5053709;28;20378;-67
2023/05/18 08:02:29;;;;;;;2.90;2.40;;;;;;;;;;5053719;28;20420;-67
2023/05/18 08:04:56;;;;;;;5.45;2.78;;;;;;;;;;5053726;28;20081;-67
2023/05/18 08:07:25;;;;;;;3.95;2.88;;;;;;;;;;5053464;28;20033;-68
2023/05/18 08:09:51;;;;;;;5.68;2.47;;;;;;;;;;5053456;28;20027;-67
2023/05/18 08:12:18;;;;;;;3.25;2.22;;;;;;;;;;5053331;28;20029;-67
2023/05/18 08:14:44;;;;;;;2.75;2.40;;;;;;;;;;5053319;28;20040;-68
2023/05/18 08:17:10;;;;;;;4.47;2.75;;;;;;;;;;5053359;28;20021;-67
2023/05/18 08:19:37;;;;;;;3.00;2.50;;;;;;;;;;5053695;28;20029;-68
2023/05/18 08:22:03;;;;;;;3.63;2.60;;;;;;;;;;5053256;28;20405;-68
2023/05/18 08:24:30;;;;;;;4.22;2.53;;;;;;;;;;5053275;28;20496;-68
2023/05/18 08:26:57;;;;;;;2.83;2.40;;;;;;;;;;5053135;28;20031;-68
2023/05/18 08:29:23;;;;;;;3.20;2.33;;;;;;;;;;5053104;28;20043;-68
2023/05/18 08:31:50;;;;;;;2.80;2.38;;;;;;;;;;5052849;28;20056;-68
2023/05/18 08:34:17;;;;;;;2.80;2.20;;;;;;;;;;5052860;28;20035;-67
2023/05/18 08:36:44;;;;;;;3.70;2.33;;;;;;;;;;5052801;28;20033;-68
2023/05/18 08:39:11;;;;;;;4.88;2.55;;;;;;;;;;5053307;28;20025;-68
2023/05/18 08:41:41;;;;;;;2.95;2.38;;;;;;;;;;5052924;28;20020;-68
2023/05/18 08:44:20;;;;;;;4.10;2.25;;;;;;;;;;5051570;28;20418;-67
2023/05/18 08:46:49;;;;;;;3.65;2.58;;;;;;;;;;5052619;28;20039;-67
2023/05/18 08:49:20;;;;;;;3.40;2.40;;;;;;;;;;5052648;28;20017;-68
2023/05/18 08:51:48;;;;;;;5.93;2.42;;;;;;;;;;5052632;28;20025;-68
2023/05/18 08:54:21;;;;;;;3.13;2.25;;;;;;;;;;5051840;28;20401;-68
2023/05/18 08:56:48;;;;;;;4.55;2.42;;;;;;;;;;5051485;28;20035;-68
2023/05/18 08:59:15;;;;;;;2.30;2.10;;;;;;;;;;5052606;28;20021;-68
2023/05/18 09:01:42;;;;;;;3.13;2.28;;;;;;;;;;5052843;28;20017;-68
2023/05/18 09:04:09;;;;;;;3.05;2.13;;;;;;;;;;5052378;28;20024;-68
2023/05/18 09:06:35;;;;;;;3.10;2.20;;;;;;;;;;5052534;28;20028;-68
2023/05/18 09:09:03;;;;;;;3.10;2.33;;;;;;;;;;5052287;28;20039;-68
2023/05/18 09:11:32;;;;;;;2.85;1.95;;;;;;;;;;5052452;28;20025;-68
2023/05/18 09:13:59;;;;;;;5.25;2.25;;;;;;;;;;5052354;28;20036;-68
2023/05/18 09:16:26;;;;;;;3.45;1.90;;;;;;;;;;5052088;28;20033;-68
2023/05/18 09:18:52;;;;;;;4.82;2.38;;;;;;;;;;5052215;28;20025;-68
2023/05/18 09:21:19;;;;;;;2.90;2.05;;;;;;;;;;5052516;28;20021;-67
2023/05/18 09:23:45;;;;;;;3.17;2.40;;;;;;;;;;5052295;28;20512;-67
2023/05/18 09:26:12;;;;;;;4.13;2.20;;;;;;;;;;5052168;28;20025;-68
2023/05/18 09:28:39;;;;;;;10.07;2.50;;;;;;;;;;5052310;28;20025;-67
2023/05/18 09:31:11;;;;;;;3.70;2.38;;;;;;;;;;5052092;28;20041;-67
2023/05/18 09:33:38;;;;;;;2.85;2.25;;;;;;;;;;5051975;28;20033;-68
2023/05/18 09:36:08;;;;;;;4.32;2.10;;;;;;;;;;5051937;28;20025;-67
2023/05/18 09:38:38;;;;;;;3.58;2.25;;;;;;;;;;5052186;28;20027;-67
2023/05/18 09:41:09;;;;;;;2.70;1.97;;;;;;;;;;5051912;28;20029;-67
2023/05/18 09:43:36;;;;;;;3.45;2.50;;;;;;;;;;5051954;28;20744;-67
2023/05/18 09:46:05;;;;;;;4.18;2.25;;;;;;;;;;5051536;28;20037;-67
2023/05/18 09:48:31;;;;;;;2.70;2.22;;;;;;;;;;5052120;28;20028;-67
2023/05/18 09:51:01;;;;;;;4.78;2.13;;;;;;;;;;5051824;28;20515;-68
2023/05/18 09:53:27;;;;;;;4.13;2.42;;;;;;;;;;5051933;28;20029;-68
2023/05/18 09:55:53;;;;;;;5.20;2.38;;;;;;;;;;5052056;28;20043;-67
2023/05/18 09:58:20;;;;;;;2.75;1.75;;;;;;;;;;5051707;28;20025;-68
2023/05/18 10:00:55;;;;;;;3.65;2.30;;;;;;;;;;5051534;28;20082;-68
2023/05/18 10:03:22;;;;;;;3.08;2.10;;;;;;;;;;5052041;28;20033;-68
2023/05/18 10:05:49;;;;;;;5.82;2.60;;;;;;;;;;5055353;28;20035;-68
2023/05/18 10:08:16;;;;;;;4.35;2.33;;;;;;;;;;5055769;28;20021;-67
2023/05/18 10:10:44;;;;;;;5.45;2.63;;;;;;;;;;5055683;28;20021;-67
2023/05/18 10:13:16;;;;;;;3.67;2.42;;;;;;;;;;5055886;28;20039;-67
2023/05/18 10:15:47;;;;;;;4.25;2.28;;;;;;;;;;5055749;28;20029;-67
2023/05/18 10:18:15;;;;;;;7.32;2.80;;;;;;;;;;5055541;28;20032;-67
2023/05/18 10:20:42;;;;;;;6.03;2.60;;;;;;;;;;5055568;28;20025;-67
2023/05/18 10:23:09;;;;;;;4.20;2.30;;;;;;;;;;5055658;28;20025;-67
2023/05/18 10:25:36;;;;;;;4.28;2.20;;;;;;;;;;5055720;28;20032;-67
2023/05/18 10:28:06;;;;;;;3.55;2.65;;;;;;;;;;5055796;28;20028;-67
2023/05/18 10:30:33;;;;;;;6.28;2.50;;;;;;;;;;5055183;28;20482;-67
2023/05/18 10:33:00;;;;;;;4.55;3.03;;;;;;;;;;5053962;28;20045;-67
2023/05/18 10:35:27;;;;;;;3.97;2.75;;;;;;;;;;5055165;28;20390;-67
2023/05/18 10:37:55;;;;;;;3.92;2.38;;;;;;;;;;5055528;28;20021;-67
2023/05/18 10:40:22;;;;;;;4.85;2.63;;;;;;;;;;5055124;28;20025;-67
2023/05/18 10:42:50;;;;;;;4.35;2.42;;;;;;;;;;5055010;28;20013;-67
2023/05/18 10:45:16;;;;;;;3.58;2.05;;;;;;;;;;5055206;28;20036;-67
2023/05/18 10:47:43;;;;;;;3.85;2.25;;;;;;;;;;5055307;28;20013;-67
2023/05/18 10:50:09;;;;;;;3.88;2.60;;;;;;;;;;5054847;28;20516;-67
2023/05/18 10:52:39;;;;;;;3.83;2.13;;;;;;;;;;5055102;28;20029;-67
2023/05/18 10:55:07;;;;;;;3.33;2.30;;;;;;;;;;5054912;28;20040;-67
2023/05/18 10:57:39;;;;;;;4.35;2.53;;;;;;;;;;5054867;28;20021;-67
2023/05/18 11:00:09;;;;;;;5.82;2.28;;;;;;;;;;5054598;28;20017;-67
2023/05/18 11:02:38;;;;;;;2.13;1.80;;;;;;;;;;5054981;28;20021;-68
2023/05/18 11:05:05;;;;;;;3.08;2.03;;;;;;;;;;5055035;28;20025;-67
2023/05/18 11:07:32;;;;;;;3.13;1.98;;;;;;;;;;5054677;28;20489;-68
2023/05/18 11:10:01;;;;;;;4.10;2.20;;;;;;;;;;5054600;28;20035;-67
2023/05/18 11:12:27;;;;;;;4.35;2.30;;;;;;;;;;5054536;28;20025;-67
2023/05/18 11:14:56;;;;;;;4.07;2.50;;;;;;;;;;5053240;28;20049;-68
2023/05/18 11:17:28;;;;;;;3.63;2.33;;;;;;;;;;5053685;28;20023;-67
2023/05/18 11:20:12;;;;;;;3.40;1.98;;;;;;;;;;5054571;28;20474;-67
2023/05/18 11:22:50;;;;;;;2.70;2.25;;;;;;;;;;5054846;28;20041;-67
2023/05/18 11:25:25;;;;;;;5.55;2.28;;;;;;;;;;5054573;28;20469;-67
2023/05/18 11:27:52;;;;;;;4.05;2.13;;;;;;;;;;5054248;28;20020;-67
2023/05/18 11:30:28;;;;;;;6.30;2.38;;;;;;;;;;5054241;28;20039;-67
2023/05/18 11:33:09;;;;;;;3.03;2.20;;;;;;;;;;5053889;28;20045;-67
2023/05/18 11:35:56;;;;;;;4.65;2.20;;;;;;;;;;5054061;28;20029;-67
2023/05/18 11:38:23;;;;;;;3.97;2.55;;;;;;;;;;5050124;28;20051;-67
2023/05/18 11:40:50;;;;;;;3.63;2.25;;;;;;;;;;5054238;28;20039;-67
2023/05/18 11:43:20;;;;;;;4.65;2.35;;;;;;;;;;5054203;28;20071;-67
2023/05/18 11:45:53;;;;;;;2.40;2.20;;;;;;;;;;5054117;28;20066;-67
2023/05/18 11:48:25;;;;;;;3.22;2.33;;;;;;;;;;5054164;28;20017;-67
2023/05/18 11:50:55;;;;;;;4.03;2.40;;;;;;;;;;5052598;28;20032;-67
2023/05/18 11:53:25;;;;;;;3.27;2.37;;;;;;;;;;5053913;28;20021;-67
2023/05/18 11:55:55;;;;;;;4.55;2.42;;;;;;;;;;5053657;28;20033;-67
2023/05/18 11:58:24;;;;;;;4.10;2.53;;;;;;;;;;5053943;28;20753;-67
2023/05/18 12:00:51;;;;;;;5.03;2.10;;;;;;;;;;5054043;28;20256;-67
2023/05/18 12:03:18;;;;;;;4.60;2.20;;;;;;;;;;5053702;28;20017;-67
2023/05/18 12:05:48;;;;;;;2.97;1.95;;;;;;;;;;5053608;28;20443;-67
2023/05/18 12:08:18;;;;;;;6.50;2.47;;;;;;;;;;5053804;28;20035;-67
2023/05/18 12:10:47;;;;;;;3.38;2.40;;;;;;;;;;5053318;28;20511;-67
2023/05/18 12:13:16;;;;;;;4.30;2.15;;;;;;;;;;5053482;28;20029;-67
2023/05/18 12:15:42;;;;;;;8.30;3.42;;;;;;;;;;5053386;28;20444;-67
2023/05/18 12:18:09;;;;;;;3.53;2.30;;;;;;;;;;5053755;28;20017;-67
2023/05/18 12:20:38;;;;;;;3.40;2.30;;;;;;;;;;5052393;28;20037;-67
2023/05/18 12:23:05;;;;;;;3.28;2.42;;;;;;;;;;5053370;28;20025;-67
2023/05/18 12:25:32;;;;;;;5.80;2.53;;;;;;;;;;5053010;28;20055;-67
2023/05/18 12:27:58;;;;;;;3.92;2.42;;;;;;;;;;5053139;28;20063;-67
2023/05/18 12:30:33;;;;;;;5.18;2.58;;;;;;;;;;5053131;28;20017;-67
2023/05/18 12:33:01;;;;;;;3.17;1.95;;;;;;;;;;5052819;28;20045;-67
2023/05/18 12:35:28;;;;;;;5.70;2.63;;;;;;;;;;5053186;28;20033;-67
2023/05/18 12:38:00;;;;;;;5.10;2.50;;;;;;;;;;5053018;28;20025;-67
2023/05/18 12:40:26;;;;;;;6.63;2.45;;;;;;;;;;5052715;28;20078;-67
2023/05/18 12:42:53;;;;;;;4.10;2.25;;;;;;;;;;5053162;28;20021;-67
2023/05/18 12:45:22;;;;;;;4.65;3.05;;;;;;;;;;5052756;28;20375;-67
2023/05/18 12:47:52;;;;;;;6.32;2.40;;;;;;;;;;5052688;28;20032;-67
2023/05/18 12:50:19;;;;;;;4.75;2.22;;;;;;;;;;5052627;28;20029;-67
2023/05/18 12:52:47;;;;;;;3.75;2.17;;;;;;;;;;5052583;28;20037;-67
2023/05/18 12:55:23;;;;;;;6.63;2.38;;;;;;;;;;5052396;28;20035;-67
2023/05/18 12:58:13;;;;;;;4.60;2.40;;;;;;;;;;5052638;28;20021;-67
2023/05/18 13:00:42;;;;;;;8.02;3.15;;;;;;;;;;5052929;28;20037;-67
2023/05/18 13:03:09;;;;;;;4.30;2.42;;;;;;;;;;5052547;28;20385;-67
2023/05/18 13:05:36;;;;;;;5.00;2.50;;;;;;;;;;5052529;28;20021;-67
2023/05/18 13:08:02;;;;;;;6.10;2.28;;;;;;;;;;5052465;28;20392;-67
2023/05/18 13:10:30;;;;;;;5.32;2.60;;;;;;;;;;5052102;28;20021;-67
2023/05/18 13:13:01;;;;;;;6.63;2.42;;;;;;;;;;5052333;28;20017;-67
2023/05/18 13:15:32;;;;;;;4.68;2.60;;;;;;;;;;5052230;28;20037;-67
2023/05/18 13:18:00;;;;;;;6.55;2.42;;;;;;;;;;5051181;28;20036;-67
2023/05/18 13:20:48;;;;;;;4.38;2.50;;;;;;;;;;5052233;28;20411;-67
2023/05/18 13:23:15;;;;;;;6.13;2.75;;;;;;;;;;5052160;28;20017;-67
2023/05/18 13:25:42;;;;;;;4.40;2.50;;;;;;;;;;5052152;28;20023;-66
2023/05/18 13:28:12;;;;;;;4.35;2.30;;;;;;;;;;5052122;28;20028;-67
2023/05/18 13:30:39;;;;;;;4.60;2.60;;;;;;;;;;5052090;28;20025;-67
2023/05/18 13:33:09;;;;;;;3.60;2.63;;;;;;;;;;5051965;28;20037;-66
2023/05/18 13:35:36;;;;;;;6.45;2.72;;;;;;;;;;5051938;28;20035;-67
2023/05/18 13:38:02;;;;;;;10.15;5.68;;;;;;;;;;5051793;28;20447;-67
2023/05/18 13:40:28;;;;;;;7.68;3.20;;;;;;;;;;5051657;28;20032;-67
2023/05/18 13:42:55;;;;;;;5.78;3.13;;;;;;;;;;5051982;28;20504;-67
2023/05/18 13:45:21;;;;;;;6.15;2.85;;;;;;;;;;5051952;28;20110;-67
2023/05/18 13:47:52;;;;;;;8.30;3.08;;;;;;;;;;5052009;28;20557;-67
2023/05/18 13:50:19;;;;;;;9.02;2.85;;;;;;;;;;5051840;28;20044;-67
2023/05/18 13:52:46;;;;;;;7.45;2.72;;;;;;;;;;5052081;28;20037;-67
2023/05/18 13:55:13;;;;;;;5.13;3.20;;;;;;;;;;5051694;28;20036;-66
2023/05/18 13:57:39;;;;;;;8.05;3.28;;;;;;;;;;5051776;28;20028;-67
2023/05/18 14:00:16;;;;;;;5.15;2.88;;;;;;;;;;5051671;28;20036;-67
2023/05/18 14:02:43;;;;;;;8.45;3.55;;;;;;;;;;5052073;28;20021;-67
2023/05/18 14:05:09;;;;;;;5.97;3.10;;;;;;;;;;5051879;28;20484;-67
2023/05/18 14:07:36;;;;;;;5.30;3.17;;;;;;;;;;5051532;28;20480;-67
2023/05/18 14:10:03;;;;;;;4.72;3.20;;;;;;;;;;5051656;28;20033;-67
2023/05/18 14:12:29;;;;;;;6.10;3.38;;;;;;;;;;5051810;28;20500;-67
2023/05/18 14:14:55;;;;;;;5.22;3.00;;;;;;;;;;5051647;28;20490;-67
2023/05/18 14:17:22;;;;;;;8.00;4.03;;;;;;;;;;5051956;28;20024;-66
2023/05/18 14:19:48;;;;;;;6.30;2.92;;;;;;;;;;5050311;28;20029;-66
2023/05/18 14:22:16;;;;;;;6.75;3.03;;;;;;;;;;5051345;28;20039;-67
2023/05/18 14:24:42;;;;;;;5.85;3.28;;;;;;;;;;5051801;28;20017;-67
2023/05/18 14:27:08;;;;;;;6.20;3.50;;;;;;;;;;5051596;28;20052;-67
2023/05/18 14:29:35;;;;;;;9.38;3.22;;;;;;;;;;5051528;28;20020;-67
2023/05/18 14:32:02;;;;;;;6.70;3.35;;;;;;;;;;5051514;28;20088;-67
2023/05/18 14:34:28;;;;;;;5.00;3.40;;;;;;;;;;5051389;28;20039;-67
2023/05/18 14:36:54;;;;;;;5.97;3.67;;;;;;;;;;5051286;28;20047;-67
2023/05/18 14:39:21;;;;;;;7.47;3.97;;;;;;;;;;5083473;28;20029;-67
2023/05/18 14:41:47;;;;;;;6.57;3.83;;;;;;;;;;5051529;28;20028;-67
2023/05/18 14:44:14;;;;;;;6.43;3.78;;;;;;;;;;5051375;28;20047;-66
2023/05/18 14:46:40;;;;;;;8.27;3.50;;;;;;;;;;5051478;28;20025;-66